sensor_id;sensor_type;location;lat;lon;timestamp;pressure;altitude;pressure_sealevel;temperature;humidity
58975;BME280;44751;52.236;5.178;2023-01-15T00:01:46;99586.38;;;6.48;100.00
58975;BME280;44751;52.236;5.178;2023-01-15T00:04:15;99564.94;;;6.48;100.00
58975;BME280;44751;52.236;5.178;2023-01-15T00:06:42;99573.25;;;6.53;100.00
58975;BME280;44751;52.236;5.178;2023-01-15T00:09:13;99581.28;;;6.53;100.00
58975;BME280;44751;52.236;5.178;2023-01-15T00:11:40;99571.31;;;6.47;100.00
58975;BME280;44751;52.236;5.178;2023-01-15T00:14:14;99578.41;;;6.40;100.00
58975;BME280;44751;52.236;5.178;2023-01-15T00:16:41;99574.34;;;6.59;100.00
58975;BME280;44751;52.236;5.178;2023-01-15T00:19:09;99570.56;;;6.53;100.00
58975;BME280;44751;52.236;5.178;2023-01-15T00:21:37;99572.59;;;6.51;100.00
58975;BME280;44751;52.236;5.178;2023-01-15T00:24:04;99572.59;;;6.51;100.00
58975;BME280;44751;52.236;5.178;2023-01-15T00:26:48;99558.47;;;6.42;100.00
58975;BME280;44751;52.236;5.178;2023-01-15T00:29:32;99561.31;;;6.41;100.00
58975;BME280;44751;52.236;5.178;2023-01-15T00:32:02;99554.97;;;6.42;100.00
58975;BME280;44751;52.236;5.178;2023-01-15T00:34:32;99566.03;;;6.39;100.00
58975;BME280;44751;52.236;5.178;2023-01-15T00:36:58;99562.53;;;6.53;100.00
58975;BME280;44751;52.236;5.178;2023-01-15T00:39:26;99567.16;;;6.44;100.00
58975;BME280;44751;52.236;5.178;2023-01-15T00:41:53;99575.28;;;6.51;100.00
58975;BME280;44751;52.236;5.178;2023-01-15T00:44:20;99567.97;;;6.45;100.00
58975;BME280;44751;52.236;5.178;2023-01-15T00:46:47;99556.97;;;6.40;100.00
58975;BME280;44751;52.236;5.178;2023-01-15T00:49:17;99554.75;;;6.43;100.00
58975;BME280;44751;52.236;5.178;2023-01-15T00:51:43;99561.53;;;6.54;100.00
58975;BME280;44751;52.236;5.178;2023-01-15T00:54:10;99558.38;;;6.51;100.00
58975;BME280;44751;52.236;5.178;2023-01-15T00:56:36;99550.69;;;6.48;100.00
58975;BME280;44751;52.236;5.178;2023-01-15T00:59:04;99564.28;;;6.46;100.00
58975;BME280;44751;52.236;5.178;2023-01-15T01:01:33;99549.41;;;6.43;100.00
58975;BME280;44751;52.236;5.178;2023-01-15T01:04:00;99553.38;;;6.48;100.00
58975;BME280;44751;52.236;5.178;2023-01-15T01:06:26;99554.38;;;6.46;100.00
58975;BME280;44751;52.236;5.178;2023-01-15T01:08:54;99553.94;;;6.43;100.00
58975;BME280;44751;52.236;5.178;2023-01-15T01:11:22;99567.25;;;6.36;100.00
58975;BME280;44751;52.236;5.178;2023-01-15T01:13:54;99558.19;;;6.37;100.00
58975;BME280;44751;52.236;5.178;2023-01-15T01:18:48;99560.09;;;6.28;100.00
58975;BME280;44751;52.236;5.178;2023-01-15T01:21:15;99571.66;;;6.29;100.00
58975;BME280;44751;52.236;5.178;2023-01-15T01:23:42;99577.28;;;6.34;100.00
58975;BME280;44751;52.236;5.178;2023-01-15T01:26:11;99579.25;;;6.40;100.00
58975;BME280;44751;52.236;5.178;2023-01-15T01:28:40;99562.69;;;6.37;100.00
58975;BME280;44751;52.236;5.178;2023-01-15T01:31:07;99568.72;;;6.24;100.00
58975;BME280;44751;52.236;5.178;2023-01-15T01:33:34;99565.28;;;6.30;100.00
58975;BME280;44751;52.236;5.178;2023-01-15T01:36:01;99572.13;;;6.32;100.00
58975;BME280;44751;52.236;5.178;2023-01-15T01:38:32;99577.19;;;6.27;100.00
58975;BME280;44751;52.236;5.178;2023-01-15T01:40:59;99582.56;;;6.27;100.00
58975;BME280;44751;52.236;5.178;2023-01-15T01:43:27;99581.53;;;6.28;100.00
58975;BME280;44751;52.236;5.178;2023-01-15T01:45:54;99593.19;;;6.36;100.00
58975;BME280;44751;52.236;5.178;2023-01-15T01:48:28;99581.44;;;6.22;100.00
58975;BME280;44751;52.236;5.178;2023-01-15T01:50:58;99585.25;;;6.27;100.00
58975;BME280;44751;52.236;5.178;2023-01-15T01:53:28;99597.53;;;6.37;100.00
58975;BME280;44751;52.236;5.178;2023-01-15T01:55:57;99590.78;;;6.26;100.00
58975;BME280;44751;52.236;5.178;2023-01-15T01:58:28;99591.13;;;6.23;100.00
58975;BME280;44751;52.236;5.178;2023-01-15T02:00:56;99582.81;;;6.17;100.00
58975;BME280;44751;52.236;5.178;2023-01-15T02:03:34;99575.72;;;6.25;100.00
58975;BME280;44751;52.236;5.178;2023-01-15T02:06:08;99571.56;;;6.22;100.00
58975;BME280;44751;52.236;5.178;2023-01-15T02:08:35;99576.94;;;6.22;100.00
58975;BME280;44751;52.236;5.178;2023-01-15T02:11:04;99575.06;;;6.23;100.00
58975;BME280;44751;52.236;5.178;2023-01-15T02:23:53;99561.75;;;6.14;100.00
58975;BME280;44751;52.236;5.178;2023-01-15T02:29:21;99569.50;;;6.09;100.00
58975;BME280;44751;52.236;5.178;2023-01-15T02:31:51;99569.69;;;6.23;100.00
58975;BME280;44751;52.236;5.178;2023-01-15T02:34:25;99565.28;;;6.15;100.00
58975;BME280;44751;52.236;5.178;2023-01-15T02:37:02;99574.19;;;6.07;100.00
58975;BME280;44751;52.236;5.178;2023-01-15T02:39:32;99571.81;;;6.12;100.00
58975;BME280;44751;52.236;5.178;2023-01-15T02:42:02;99568.47;;;6.10;100.00
58975;BME280;44751;52.236;5.178;2023-01-15T02:44:31;99573.38;;;6.06;100.00
58975;BME280;44751;52.236;5.178;2023-01-15T02:47:04;99551.22;;;6.13;100.00
58975;BME280;44751;52.236;5.178;2023-01-15T02:49:33;99553.44;;;6.09;100.00
58975;BME280;44751;52.236;5.178;2023-01-15T02:52:03;99564.06;;;6.17;100.00
58975;BME280;44751;52.236;5.178;2023-01-15T02:54:38;99560.94;;;6.14;100.00
58975;BME280;44751;52.236;5.178;2023-01-15T02:57:09;99557.59;;;6.12;100.00
58975;BME280;44751;52.236;5.178;2023-01-15T02:59:39;99579.88;;;6.27;100.00
58975;BME280;44751;52.236;5.178;2023-01-15T03:02:11;99561.84;;;6.21;100.00
58975;BME280;44751;52.236;5.178;2023-01-15T03:07:21;99556.28;;;6.07;100.00
58975;BME280;44751;52.236;5.178;2023-01-15T03:09:53;99546.97;;;6.03;100.00
58975;BME280;44751;52.236;5.178;2023-01-15T03:15:24;99546.59;;;6.06;100.00
58975;BME280;44751;52.236;5.178;2023-01-15T03:18:07;99553.72;;;6.14;100.00
58975;BME280;44751;52.236;5.178;2023-01-15T03:20:38;99555.50;;;5.99;100.00
58975;BME280;44751;52.236;5.178;2023-01-15T03:23:09;99554.75;;;5.90;100.00
58975;BME280;44751;52.236;5.178;2023-01-15T03:25:40;99553.31;;;6.02;100.00
58975;BME280;44751;52.236;5.178;2023-01-15T03:28:10;99549.69;;;5.95;100.00
58975;BME280;44751;52.236;5.178;2023-01-15T03:30:37;99541.28;;;5.83;100.00
58975;BME280;44751;52.236;5.178;2023-01-15T03:33:04;99555.69;;;5.97;100.00
58975;BME280;44751;52.236;5.178;2023-01-15T03:35:41;99556.59;;;5.89;100.00
58975;BME280;44751;52.236;5.178;2023-01-15T03:38:11;99541.13;;;5.76;100.00
58975;BME280;44751;52.236;5.178;2023-01-15T03:43:24;99541.31;;;5.75;100.00
58975;BME280;44751;52.236;5.178;2023-01-15T03:49:24;99552.47;;;5.63;100.00
58975;BME280;44751;52.236;5.178;2023-01-15T03:52:19;99544.31;;;5.80;100.00
58975;BME280;44751;52.236;5.178;2023-01-15T03:54:56;99553.31;;;5.79;100.00
58975;BME280;44751;52.236;5.178;2023-01-15T03:57:35;99540.00;;;5.71;100.00
58975;BME280;44751;52.236;5.178;2023-01-15T04:00:11;99543.63;;;5.78;100.00
58975;BME280;44751;52.236;5.178;2023-01-15T04:02:46;99545.84;;;5.74;100.00
58975;BME280;44751;52.236;5.178;2023-01-15T04:05:14;99547.06;;;5.72;100.00
58975;BME280;44751;52.236;5.178;2023-01-15T04:07:42;99534.19;;;5.67;100.00
58975;BME280;44751;52.236;5.178;2023-01-15T04:10:12;99539.31;;;5.77;100.00
58975;BME280;44751;52.236;5.178;2023-01-15T04:12:39;99541.69;;;5.72;100.00
58975;BME280;44751;52.236;5.178;2023-01-15T04:15:06;99534.47;;;5.72;100.00
58975;BME280;44751;52.236;5.178;2023-01-15T04:17:32;99543.81;;;5.76;100.00
58975;BME280;44751;52.236;5.178;2023-01-15T04:19:59;99536.63;;;5.77;100.00
58975;BME280;44751;52.236;5.178;2023-01-15T04:22:25;99544.31;;;5.80;100.00
58975;BME280;44751;52.236;5.178;2023-01-15T04:24:55;99538.47;;;5.76;100.00
58975;BME280;44751;52.236;5.178;2023-01-15T04:27:21;99534.78;;;5.77;100.00
58975;BME280;44751;52.236;5.178;2023-01-15T04:29:48;99537.09;;;5.80;100.00
58975;BME280;44751;52.236;5.178;2023-01-15T04:32:15;99534.91;;;5.84;100.00
58975;BME280;44751;52.236;5.178;2023-01-15T04:34:41;99524.72;;;5.79;100.00
58975;BME280;44751;52.236;5.178;2023-01-15T04:37:08;99537.75;;;5.82;100.00
58975;BME280;44751;52.236;5.178;2023-01-15T04:39:37;99533.25;;;5.83;100.00
58975;BME280;44751;52.236;5.178;2023-01-15T04:42:04;99536.44;;;5.78;100.00
58975;BME280;44751;52.236;5.178;2023-01-15T04:44:47;99540.44;;;5.82;100.00
58975;BME280;44751;52.236;5.178;2023-01-15T04:47:14;99531.09;;;5.78;100.00
58975;BME280;44751;52.236;5.178;2023-01-15T04:49:41;99544.84;;;5.75;100.00
58975;BME280;44751;52.236;5.178;2023-01-15T04:52:07;99541.19;;;5.91;100.00
58975;BME280;44751;52.236;5.178;2023-01-15T04:54:34;99527.50;;;5.86;100.00
58975;BME280;44751;52.236;5.178;2023-01-15T04:57:00;99539.91;;;5.87;100.00
58975;BME280;44751;52.236;5.178;2023-01-15T04:59:27;99534.53;;;5.87;100.00
58975;BME280;44751;52.236;5.178;2023-01-15T05:01:56;99535.78;;;5.76;100.00
58975;BME280;44751;52.236;5.178;2023-01-15T05:04:23;99528.00;;;5.90;100.00
58975;BME280;44751;52.236;5.178;2023-01-15T05:06:49;99532.50;;;5.89;100.00
58975;BME280;44751;52.236;5.178;2023-01-15T05:09:17;99539.19;;;5.70;100.00
58975;BME280;44751;52.236;5.178;2023-01-15T05:11:49;99527.47;;;5.71;100.00
58975;BME280;44751;52.236;5.178;2023-01-15T05:14:16;99528.50;;;5.70;100.00
58975;BME280;44751;52.236;5.178;2023-01-15T05:16:43;99530.44;;;5.76;100.00
58975;BME280;44751;52.236;5.178;2023-01-15T05:19:09;99515.03;;;5.78;100.00
58975;BME280;44751;52.236;5.178;2023-01-15T05:21:39;99527.81;;;5.68;100.00
58975;BME280;44751;52.236;5.178;2023-01-15T05:24:16;99514.94;;;5.72;100.00
58975;BME280;44751;52.236;5.178;2023-01-15T05:26:43;99515.56;;;5.74;100.00
58975;BME280;44751;52.236;5.178;2023-01-15T05:29:10;99511.25;;;5.73;100.00
58975;BME280;44751;52.236;5.178;2023-01-15T05:31:37;99523.78;;;5.72;100.00
58975;BME280;44751;52.236;5.178;2023-01-15T05:34:04;99518.91;;;5.76;100.00
58975;BME280;44751;52.236;5.178;2023-01-15T05:36:31;99520.47;;;5.70;100.00
58975;BME280;44751;52.236;5.178;2023-01-15T05:38:58;99530.63;;;5.75;100.00
58975;BME280;44751;52.236;5.178;2023-01-15T05:41:26;99517.78;;;5.70;100.00
58975;BME280;44751;52.236;5.178;2023-01-15T05:44:11;99510.81;;;5.61;100.00
58975;BME280;44751;52.236;5.178;2023-01-15T05:46:39;99500.84;;;5.54;100.00
58975;BME280;44751;52.236;5.178;2023-01-15T05:49:09;99505.59;;;5.67;100.00
58975;BME280;44751;52.236;5.178;2023-01-15T05:51:38;99520.88;;;5.59;100.00
58975;BME280;44751;52.236;5.178;2023-01-15T05:54:07;99530.91;;;5.56;100.00
58975;BME280;44751;52.236;5.178;2023-01-15T05:56:35;99511.50;;;5.63;100.00
58975;BME280;44751;52.236;5.178;2023-01-15T05:59:05;99524.09;;;5.54;100.00
58975;BME280;44751;52.236;5.178;2023-01-15T06:01:33;99505.28;;;5.62;100.00
58975;BME280;44751;52.236;5.178;2023-01-15T06:04:01;99511.78;;;5.68;100.00
58975;BME280;44751;52.236;5.178;2023-01-15T06:06:28;99500.97;;;5.61;100.00
58975;BME280;44751;52.236;5.178;2023-01-15T06:08:55;99526.59;;;5.55;100.00
58975;BME280;44751;52.236;5.178;2023-01-15T06:11:21;99526.84;;;5.46;100.00
58975;BME280;44751;52.236;5.178;2023-01-15T06:13:48;99516.63;;;5.49;100.00
58975;BME280;44751;52.236;5.178;2023-01-15T06:16:15;99529.91;;;5.34;100.00
58975;BME280;44751;52.236;5.178;2023-01-15T06:18:43;99523.09;;;5.32;100.00
58975;BME280;44751;52.236;5.178;2023-01-15T06:21:11;99530.28;;;5.31;100.00
58975;BME280;44751;52.236;5.178;2023-01-15T06:23:39;99540.19;;;5.22;100.00
58975;BME280;44751;52.236;5.178;2023-01-15T06:26:12;99536.00;;;5.28;100.00
58975;BME280;44751;52.236;5.178;2023-01-15T06:28:44;99543.34;;;5.26;100.00
58975;BME280;44751;52.236;5.178;2023-01-15T06:31:16;99539.00;;;5.25;100.00
58975;BME280;44751;52.236;5.178;2023-01-15T06:33:43;99545.72;;;5.21;100.00
58975;BME280;44751;52.236;5.178;2023-01-15T06:36:17;99523.91;;;5.09;100.00
58975;BME280;44751;52.236;5.178;2023-01-15T06:38:45;99528.25;;;5.10;100.00
58975;BME280;44751;52.236;5.178;2023-01-15T06:41:15;99532.41;;;5.12;100.00
58975;BME280;44751;52.236;5.178;2023-01-15T06:43:59;99533.09;;;5.06;100.00
58975;BME280;44751;52.236;5.178;2023-01-15T06:46:47;99523.41;;;5.05;100.00
58975;BME280;44751;52.236;5.178;2023-01-15T06:49:36;99527.63;;;4.99;100.00
58975;BME280;44751;52.236;5.178;2023-01-15T06:52:07;99537.56;;;4.90;100.00
58975;BME280;44751;52.236;5.178;2023-01-15T06:54:34;99530.97;;;5.01;100.00
58975;BME280;44751;52.236;5.178;2023-01-15T06:57:01;99521.25;;;5.09;100.00
58975;BME280;44751;52.236;5.178;2023-01-15T06:59:27;99513.63;;;4.97;100.00
58975;BME280;44751;52.236;5.178;2023-01-15T07:01:59;99519.59;;;4.99;100.00
58975;BME280;44751;52.236;5.178;2023-01-15T07:04:25;99512.94;;;4.95;100.00
58975;BME280;44751;52.236;5.178;2023-01-15T07:06:52;99532.41;;;5.12;100.00
58975;BME280;44751;52.236;5.178;2023-01-15T07:09:19;99525.06;;;5.06;100.00
58975;BME280;44751;52.236;5.178;2023-01-15T07:11:45;99519.78;;;4.98;100.00
58975;BME280;44751;52.236;5.178;2023-01-15T07:14:22;99524.59;;;5.02;100.00
58975;BME280;44751;52.236;5.178;2023-01-15T07:16:49;99523.34;;;4.90;100.00
58975;BME280;44751;52.236;5.178;2023-01-15T07:19:17;99526.00;;;4.90;100.00
58975;BME280;44751;52.236;5.178;2023-01-15T07:21:43;99530.56;;;5.13;100.00
58975;BME280;44751;52.236;5.178;2023-01-15T07:24:11;99511.59;;;4.99;100.00
58975;BME280;44751;52.236;5.178;2023-01-15T07:26:44;99528.06;;;5.11;100.00
58975;BME280;44751;52.236;5.178;2023-01-15T07:29:11;99526.59;;;5.09;100.00
58975;BME280;44751;52.236;5.178;2023-01-15T07:31:41;99525.75;;;5.08;100.00
58975;BME280;44751;52.236;5.178;2023-01-15T07:34:10;99517.72;;;5.08;100.00
58975;BME280;44751;52.236;5.178;2023-01-15T07:36:39;99506.50;;;5.13;100.00
58975;BME280;44751;52.236;5.178;2023-01-15T07:39:07;99500.50;;;5.11;100.00
58975;BME280;44751;52.236;5.178;2023-01-15T07:41:41;99502.22;;;5.03;100.00
58975;BME280;44751;52.236;5.178;2023-01-15T07:44:28;99498.63;;;5.20;100.00
58975;BME280;44751;52.236;5.178;2023-01-15T07:47:23;99500.16;;;5.14;100.00
58975;BME280;44751;52.236;5.178;2023-01-15T07:50:10;99488.84;;;5.03;100.00
58975;BME280;44751;52.236;5.178;2023-01-15T07:52:37;99483.16;;;5.07;100.00
58975;BME280;44751;52.236;5.178;2023-01-15T07:55:04;99495.88;;;5.04;100.00
58975;BME280;44751;52.236;5.178;2023-01-15T07:57:32;99487.06;;;5.19;100.00
58975;BME280;44751;52.236;5.178;2023-01-15T07:59:59;99504.78;;;5.20;100.00
58975;BME280;44751;52.236;5.178;2023-01-15T08:02:26;99497.88;;;5.26;100.00
58975;BME280;44751;52.236;5.178;2023-01-15T08:04:52;99512.50;;;5.38;100.00
58975;BME280;44751;52.236;5.178;2023-01-15T08:07:19;99509.88;;;5.30;100.00
58975;BME280;44751;52.236;5.178;2023-01-15T08:09:46;99526.72;;;5.39;100.00
58975;BME280;44751;52.236;5.178;2023-01-15T08:12:15;99520.75;;;5.28;100.00
58975;BME280;44751;52.236;5.178;2023-01-15T08:15:00;99526.38;;;5.10;100.00
58975;BME280;44751;52.236;5.178;2023-01-15T08:17:45;99514.38;;;5.06;100.00
58975;BME280;44751;52.236;5.178;2023-01-15T08:20:15;99511.31;;;5.17;100.00
58975;BME280;44751;52.236;5.178;2023-01-15T08:22:42;99495.94;;;5.20;100.00
58975;BME280;44751;52.236;5.178;2023-01-15T08:25:12;99504.84;;;5.35;100.00
58975;BME280;44751;52.236;5.178;2023-01-15T08:27:38;99491.78;;;5.40;100.00
58975;BME280;44751;52.236;5.178;2023-01-15T08:30:12;99495.94;;;5.43;100.00
58975;BME280;44751;52.236;5.178;2023-01-15T08:32:39;99510.38;;;5.57;100.00
58975;BME280;44751;52.236;5.178;2023-01-15T08:35:11;99506.03;;;5.56;100.00
58975;BME280;44751;52.236;5.178;2023-01-15T08:37:41;99500.00;;;5.54;100.00
58975;BME280;44751;52.236;5.178;2023-01-15T08:40:09;99489.81;;;5.58;100.00
58975;BME280;44751;52.236;5.178;2023-01-15T08:42:36;99499.88;;;5.71;100.00
58975;BME280;44751;52.236;5.178;2023-01-15T08:45:08;99493.78;;;5.62;100.00
58975;BME280;44751;52.236;5.178;2023-01-15T08:47:37;99493.97;;;5.60;100.00
58975;BME280;44751;52.236;5.178;2023-01-15T08:50:08;99500.97;;;5.61;100.00
58975;BME280;44751;52.236;5.178;2023-01-15T08:52:35;99492.09;;;5.61;100.00
58975;BME280;44751;52.236;5.178;2023-01-15T08:55:06;99509.06;;;5.53;100.00
58975;BME280;44751;52.236;5.178;2023-01-15T08:57:33;99510.09;;;5.52;100.00
58975;BME280;44751;52.236;5.178;2023-01-15T09:00:01;99534.38;;;5.65;100.00
58975;BME280;44751;52.236;5.178;2023-01-15T09:02:28;99518.25;;;5.74;100.00
58975;BME280;44751;52.236;5.178;2023-01-15T09:04:55;99508.03;;;5.77;100.00
58975;BME280;44751;52.236;5.178;2023-01-15T09:07:24;99510.22;;;5.74;100.00
58975;BME280;44751;52.236;5.178;2023-01-15T09:09:50;99509.69;;;5.78;100.00
58975;BME280;44751;52.236;5.178;2023-01-15T09:12:17;99496.75;;;5.82;100.00
58975;BME280;44751;52.236;5.178;2023-01-15T09:14:46;99506.66;;;5.81;100.00
58975;BME280;44751;52.236;5.178;2023-01-15T09:17:13;99505.16;;;5.79;100.00
58975;BME280;44751;52.236;5.178;2023-01-15T09:19:48;99522.47;;;5.91;100.00
58975;BME280;44751;52.236;5.178;2023-01-15T09:22:14;99525.88;;;6.00;100.00
58975;BME280;44751;52.236;5.178;2023-01-15T09:24:41;99514.47;;;6.06;100.00
58975;BME280;44751;52.236;5.178;2023-01-15T09:27:10;99512.44;;;6.09;100.00
58975;BME280;44751;52.236;5.178;2023-01-15T09:29:37;99528.22;;;6.03;100.00
58975;BME280;44751;52.236;5.178;2023-01-15T09:32:07;99511.22;;;6.11;100.00
58975;BME280;44751;52.236;5.178;2023-01-15T09:34:34;99512.66;;;6.22;100.00
58975;BME280;44751;52.236;5.178;2023-01-15T09:37:01;99508.69;;;6.18;100.00
58975;BME280;44751;52.236;5.178;2023-01-15T09:39:27;99496.47;;;6.30;100.00
58975;BME280;44751;52.236;5.178;2023-01-15T09:44:38;99524.19;;;6.23;100.00
58975;BME280;44751;52.236;5.178;2023-01-15T09:55:21;99506.34;;;6.30;100.00
58975;BME280;44751;52.236;5.178;2023-01-15T09:57:56;99508.19;;;6.29;100.00
58975;BME280;44751;52.236;5.178;2023-01-15T10:00:26;99514.56;;;6.28;100.00
58975;BME280;44751;52.236;5.178;2023-01-15T10:11:05;99553.88;;;5.74;100.00
58975;BME280;44751;52.236;5.178;2023-01-15T10:16:46;99539.34;;;5.22;100.00
58975;BME280;44751;52.236;5.178;2023-01-15T10:19:12;99535.94;;;5.13;100.00
58975;BME280;44751;52.236;5.178;2023-01-15T10:21:54;99531.16;;;5.23;100.00
58975;BME280;44751;52.236;5.178;2023-01-15T10:24:39;99516.03;;;5.39;100.00
58975;BME280;44751;52.236;5.178;2023-01-15T10:27:18;99533.41;;;5.58;100.00
58975;BME280;44751;52.236;5.178;2023-01-15T10:30:05;99523.53;;;5.82;100.00
58975;BME280;44751;52.236;5.178;2023-01-15T10:32:43;99536.16;;;5.73;100.00
58975;BME280;44751;52.236;5.178;2023-01-15T10:46:02;99533.13;;;6.15;100.00
58975;BME280;44751;52.236;5.178;2023-01-15T10:51:26;99527.91;;;5.98;100.00
58975;BME280;44751;52.236;5.178;2023-01-15T10:54:06;99533.69;;;6.10;100.00
58975;BME280;44751;52.236;5.178;2023-01-15T10:56:47;99556.69;;;6.19;100.00
58975;BME280;44751;52.236;5.178;2023-01-15T10:59:23;99544.94;;;6.05;100.00
58975;BME280;44751;52.236;5.178;2023-01-15T11:01:54;99546.25;;;6.10;100.00
58975;BME280;44751;52.236;5.178;2023-01-15T11:04:21;99556.13;;;6.24;100.00
58975;BME280;44751;52.236;5.178;2023-01-15T11:06:48;99556.88;;;6.33;100.00
58975;BME280;44751;52.236;5.178;2023-01-15T11:09:20;99554.97;;;6.42;100.00
58975;BME280;44751;52.236;5.178;2023-01-15T11:11:50;99553.63;;;6.23;100.00
58975;BME280;44751;52.236;5.178;2023-01-15T11:14:38;99548.66;;;6.19;100.00
58975;BME280;44751;52.236;5.178;2023-01-15T11:17:24;99550.16;;;6.22;100.00
58975;BME280;44751;52.236;5.178;2023-01-15T11:20:32;99557.69;;;6.18;100.00
58975;BME280;44751;52.236;5.178;2023-01-15T11:23:08;99556.50;;;6.21;100.00
58975;BME280;44751;52.236;5.178;2023-01-15T11:25:49;99567.44;;;6.35;100.00
58975;BME280;44751;52.236;5.178;2023-01-15T11:28:16;99540.53;;;6.43;100.00
58975;BME280;44751;52.236;5.178;2023-01-15T11:30:52;99531.41;;;6.37;100.00
58975;BME280;44751;52.236;5.178;2023-01-15T11:33:25;99532.16;;;6.46;100.00
58975;BME280;44751;52.236;5.178;2023-01-15T11:35:55;99523.34;;;6.52;100.00
58975;BME280;44751;52.236;5.178;2023-01-15T11:38:28;99555.97;;;6.56;100.00
58975;BME280;44751;52.236;5.178;2023-01-15T11:41:01;99560.03;;;6.37;100.00
58975;BME280;44751;52.236;5.178;2023-01-15T11:43:29;99542.28;;;6.36;100.00
58975;BME280;44751;52.236;5.178;2023-01-15T11:46:25;99548.09;;;6.39;100.00
58975;BME280;44751;52.236;5.178;2023-01-15T11:49:12;99547.28;;;6.54;100.00
58975;BME280;44751;52.236;5.178;2023-01-15T11:52:00;99545.63;;;6.68;100.00
58975;BME280;44751;52.236;5.178;2023-01-15T11:54:29;99543.47;;;6.63;100.00
58975;BME280;44751;52.236;5.178;2023-01-15T11:56:57;99536.38;;;6.55;100.00
58975;BME280;44751;52.236;5.178;2023-01-15T11:59:24;99541.00;;;6.46;100.00
58975;BME280;44751;52.236;5.178;2023-01-15T12:01:57;99535.81;;;6.45;100.00
58975;BME280;44751;52.236;5.178;2023-01-15T12:04:35;99545.34;;;6.48;100.00
58975;BME280;44751;52.236;5.178;2023-01-15T12:07:05;99542.19;;;6.44;100.00
58975;BME280;44751;52.236;5.178;2023-01-15T12:25:46;99558.25;;;5.90;100.00
58975;BME280;44751;52.236;5.178;2023-01-15T12:28:22;99547.69;;;5.74;100.00
58975;BME280;44751;52.236;5.178;2023-01-15T12:31:13;99558.50;;;5.80;100.00
58975;BME280;44751;52.236;5.178;2023-01-15T12:33:59;99550.03;;;5.92;100.00
58975;BME280;44751;52.236;5.178;2023-01-15T12:36:44;99549.22;;;5.91;100.00
58975;BME280;44751;52.236;5.178;2023-01-15T12:42:16;99542.72;;;6.09;100.00
58975;BME280;44751;52.236;5.178;2023-01-15T12:45:06;99551.88;;;6.15;100.00
58975;BME280;44751;52.236;5.178;2023-01-15T12:47:43;99555.00;;;6.03;100.00
58975;BME280;44751;52.236;5.178;2023-01-15T12:55:40;99557.91;;;5.93;100.00
58975;BME280;44751;52.236;5.178;2023-01-15T12:58:33;99554.38;;;5.93;100.00
58975;BME280;44751;52.236;5.178;2023-01-15T13:01:28;99539.69;;;5.89;100.00
58975;BME280;44751;52.236;5.178;2023-01-15T13:04:43;99554.94;;;5.88;100.00
58975;BME280;44751;52.236;5.178;2023-01-15T13:06:53;99532.06;;;6.01;100.00
58975;BME280;44751;52.236;5.178;2023-01-15T13:09:43;99544.97;;;5.97;100.00
58975;BME280;44751;52.236;5.178;2023-01-15T13:12:15;99538.69;;;5.90;100.00
58975;BME280;44751;52.236;5.178;2023-01-15T13:14:42;99537.69;;;5.91;100.00
58975;BME280;44751;52.236;5.178;2023-01-15T13:17:33;99549.47;;;6.05;100.00
58975;BME280;44751;52.236;5.178;2023-01-15T13:22:53;99538.03;;;6.41;100.00
58975;BME280;44751;52.236;5.178;2023-01-15T13:25:39;99559.84;;;6.53;100.00
58975;BME280;44751;52.236;5.178;2023-01-15T13:28:18;99545.34;;;6.48;100.00
58975;BME280;44751;52.236;5.178;2023-01-15T13:31:13;99543.97;;;6.52;100.00
58975;BME280;44751;52.236;5.178;2023-01-15T13:33:49;99552.09;;;6.58;100.00
58975;BME280;44751;52.236;5.178;2023-01-15T13:36:23;99554.38;;;6.62;100.00
58975;BME280;44751;52.236;5.178;2023-01-15T13:38:54;99573.06;;;6.55;100.00
58975;BME280;44751;52.236;5.178;2023-01-15T13:41:25;99557.06;;;6.46;100.00
58975;BME280;44751;52.236;5.178;2023-01-15T13:44:31;99576.00;;;6.45;100.00
58975;BME280;44751;52.236;5.178;2023-01-15T13:47:09;99561.53;;;6.54;100.00
58975;BME280;44751;52.236;5.178;2023-01-15T13:49:43;99575.28;;;6.66;100.00
58975;BME280;44751;52.236;5.178;2023-01-15T13:52:30;99560.75;;;6.76;100.00
58975;BME280;44751;52.236;5.178;2023-01-15T13:55:00;99571.47;;;6.76;100.00
58975;BME280;44751;52.236;5.178;2023-01-15T13:57:42;99568.72;;;6.84;100.00
58975;BME280;44751;52.236;5.178;2023-01-15T14:00:29;99572.28;;;6.91;100.00
58975;BME280;44751;52.236;5.178;2023-01-15T14:02:58;99578.88;;;6.89;100.00
58975;BME280;44751;52.236;5.178;2023-01-15T14:05:35;99572.97;;;6.93;100.00
58975;BME280;44751;52.236;5.178;2023-01-15T14:08:22;99575.47;;;6.95;100.00
58975;BME280;44751;52.236;5.178;2023-01-15T14:10:53;99579.06;;;6.87;100.00
58975;BME280;44751;52.236;5.178;2023-01-15T14:13:35;99596.81;;;6.88;100.00
58975;BME280;44751;52.236;5.178;2023-01-15T14:21:49;99607.34;;;6.59;100.00
58975;BME280;44751;52.236;5.178;2023-01-15T14:30:08;99617.03;;;6.61;100.00
58975;BME280;44751;52.236;5.178;2023-01-15T14:35:24;99658.91;;;6.62;100.00
58975;BME280;44751;52.236;5.178;2023-01-15T14:37:58;99609.50;;;6.64;100.00
58975;BME280;44751;52.236;5.178;2023-01-15T14:40:31;99616.69;;;6.64;100.00
58975;BME280;44751;52.236;5.178;2023-01-15T14:43:01;99621.41;;;6.77;100.00
58975;BME280;44751;52.236;5.178;2023-01-15T14:45:33;99617.53;;;6.79;100.00
58975;BME280;44751;52.236;5.178;2023-01-15T14:48:20;99621.50;;;6.83;100.00
58975;BME280;44751;52.236;5.178;2023-01-15T14:51:15;99630.28;;;6.77;100.00
58975;BME280;44751;52.236;5.178;2023-01-15T14:56:22;99638.69;;;6.74;100.00
58975;BME280;44751;52.236;5.178;2023-01-15T14:59:16;99646.63;;;6.67;100.00
58975;BME280;44751;52.236;5.178;2023-01-15T15:02:05;99656.97;;;6.70;100.00
58975;BME280;44751;52.236;5.178;2023-01-15T15:04:49;99647.75;;;6.73;100.00
58975;BME280;44751;52.236;5.178;2023-01-15T15:07:22;99640.63;;;6.65;100.00
58975;BME280;44751;52.236;5.178;2023-01-15T15:10:34;99658.38;;;6.66;100.00
58975;BME280;44751;52.236;5.178;2023-01-15T15:13:14;99650.22;;;6.59;100.00
58975;BME280;44751;52.236;5.178;2023-01-15T15:21:19;99670.47;;;6.62;100.00